Time;durP1;ratioP1;P1;durP2;ratioP2;P2;SDS_P1;SDS_P2;PMS_P1;PMS_P2;Temp;Humidity;BMP_temperature;BMP_pressure;BME280_temperature;BME280_humidity;BME280_pressure;Samples;Min_cycle;Max_cycle;Signal;HPM_P1;HPM_P2
2023/08/09 00:02:02;;;;;;;10.55;6.60;;;15.20;99.90;;;;;;5053292;28;20032;-46
2023/08/09 00:04:27;;;;;;;14.02;6.88;;;15.30;99.90;;;;;;5053274;28;20036;-45
2023/08/09 00:06:53;;;;;;;13.65;7.63;;;15.30;99.90;;;;;;5048681;28;20083;-44
2023/08/09 00:09:20;;;;;;;13.02;7.05;;;15.30;99.90;;;;;;5052969;28;20448;-45
2023/08/09 00:11:47;;;;;;;11.05;6.93;;;15.20;99.90;;;;;;5053026;28;20055;-46
2023/08/09 00:14:12;;;;;;;16.75;7.88;;;15.20;99.90;;;;;;5057827;28;20024;-44
2023/08/09 00:16:38;;;;;;;12.23;7.32;;;15.30;99.90;;;;;;5073039;28;20039;-42
2023/08/09 00:19:05;;;;;;;13.45;7.38;;;15.30;99.90;;;;;;5072765;28;20052;-42
2023/08/09 00:21:31;;;;;;;10.13;6.32;;;15.30;99.90;;;;;;5073248;28;20027;-45
2023/08/09 00:23:58;;;;;;;12.18;6.80;;;15.30;99.90;;;;;;5055107;28;20450;-42
2023/08/09 00:26:25;;;;;;;11.37;6.60;;;15.30;99.90;;;;;;5053112;28;20049;-49
2023/08/09 00:28:51;;;;;;;13.00;7.30;;;15.30;99.90;;;;;;5053077;28;20767;-43
2023/08/09 00:31:17;;;;;;;11.80;6.03;;;15.30;99.90;;;;;;5052813;28;20033;-49
2023/08/09 00:33:43;;;;;;;10.45;6.25;;;15.30;99.90;;;;;;5052720;28;20543;-46
2023/08/09 00:36:09;;;;;;;10.85;6.65;;;15.20;99.90;;;;;;5052672;28;20029;-62
2023/08/09 00:38:36;;;;;;;11.48;6.32;;;15.20;99.90;;;;;;5052960;28;20478;-45
2023/08/09 00:41:02;;;;;;;11.00;6.25;;;15.20;99.90;;;;;;5051889;28;20033;-52
2023/08/09 00:43:28;;;;;;;13.75;7.30;;;15.20;99.90;;;;;;5052717;28;20025;-43
2023/08/09 00:45:53;;;;;;;15.68;6.32;;;15.20;99.90;;;;;;5052686;28;20500;-44
2023/08/09 00:48:19;;;;;;;10.50;6.05;;;15.10;99.90;;;;;;5050817;28;20029;-44
2023/08/09 00:50:45;;;;;;;11.38;6.75;;;15.10;99.90;;;;;;5051443;28;20389;-57
2023/08/09 00:53:11;;;;;;;10.27;6.07;;;15.10;99.90;;;;;;5050596;28;20048;-55
2023/08/09 00:55:39;;;;;;;10.98;6.10;;;15.10;99.90;;;;;;5051500;28;20549;-57
2023/08/09 00:58:04;;;;;;;12.63;6.95;;;15.10;99.90;;;;;;5051508;28;20036;-57
2023/08/09 01:00:31;;;;;;;12.98;6.95;;;15.10;99.90;;;;;;5052455;28;20033;-57
2023/08/09 01:02:57;;;;;;;8.85;5.70;;;15.10;99.90;;;;;;5052029;28;20108;-56
2023/08/09 01:06:06;;;;;;;12.38;6.78;;;15.00;99.90;;;;;;5051235;28;20729;-57
2023/08/09 01:08:47;;;;;;;11.00;6.18;;;15.10;99.90;;;;;;4984893;28;20566;-57
2023/08/09 01:11:29;;;;;;;7.68;4.43;;;15.00;99.90;;;;;;5032488;28;20034;-56
2023/08/09 01:13:57;;;;;;;13.45;6.03;;;15.00;99.90;;;;;;5038189;28;20087;-44
2023/08/09 01:16:26;;;;;;;8.52;5.35;;;15.00;99.90;;;;;;5050315;28;20497;-57
2023/08/09 01:18:53;;;;;;;9.40;4.63;;;15.00;99.90;;;;;;5052282;28;20041;-57
2023/08/09 01:21:23;;;;;;;9.85;5.85;;;15.00;99.90;;;;;;5052377;28;20017;-57
2023/08/09 01:23:49;;;;;;;10.43;6.30;;;15.00;99.90;;;;;;5052229;28;20446;-56
2023/08/09 01:26:15;;;;;;;7.70;4.80;;;14.90;99.90;;;;;;5051315;28;20067;-57
2023/08/09 01:28:41;;;;;;;6.40;4.38;;;14.90;99.90;;;;;;5052315;28;20029;-57
2023/08/09 01:31:06;;;;;;;10.10;5.43;;;14.90;99.90;;;;;;5052240;28;20029;-57
2023/08/09 01:33:32;;;;;;;7.55;4.95;;;14.90;99.90;;;;;;5050139;28;20025;-57
2023/08/09 01:36:09;;;;;;;9.38;6.00;;;14.90;99.90;;;;;;5050912;28;20103;-55
2023/08/09 01:39:00;;;;;;;9.18;5.82;;;14.90;99.90;;;;;;5052199;28;20519;-57
2023/08/09 01:41:27;;;;;;;11.13;6.30;;;14.90;99.90;;;;;;5051493;28;20052;-57
2023/08/09 01:43:55;;;;;;;7.78;5.13;;;14.90;99.90;;;;;;5052094;28;20068;-57
2023/08/09 01:46:21;;;;;;;9.07;5.15;;;14.90;99.90;;;;;;5052055;28;20059;-55
2023/08/09 01:48:48;;;;;;;9.52;5.45;;;14.90;99.90;;;;;;5051906;28;20029;-57
2023/08/09 01:51:14;;;;;;;8.10;5.70;;;14.90;99.90;;;;;;5051168;28;20033;-57
2023/08/09 01:53:39;;;;;;;12.70;6.72;;;14.90;99.90;;;;;;5050045;28;20036;-58
2023/08/09 01:56:05;;;;;;;7.50;5.07;;;14.90;99.90;;;;;;5051003;28;20036;-67
2023/08/09 01:58:31;;;;;;;9.02;5.32;;;14.90;99.90;;;;;;5034503;28;20029;-58
2023/08/09 02:00:57;;;;;;;11.45;6.25;;;14.90;99.90;;;;;;5054749;28;20021;-56
2023/08/09 02:03:25;;;;;;;10.75;6.43;;;14.90;99.90;;;;;;5037447;28;20160;-57
2023/08/09 02:05:51;;;;;;;12.85;7.00;;;14.90;99.90;;;;;;5054668;28;20032;-58
2023/08/09 02:08:17;;;;;;;14.30;6.43;;;14.80;99.90;;;;;;5055472;28;20492;-59
2023/08/09 02:10:43;;;;;;;12.52;7.05;;;14.80;99.90;;;;;;5052119;28;20025;-59
2023/08/09 02:13:08;;;;;;;13.82;7.15;;;14.80;99.90;;;;;;5054289;28;20461;-58
2023/08/09 02:15:35;;;;;;;11.55;6.65;;;14.80;99.90;;;;;;5055588;28;20021;-57
2023/08/09 02:18:00;;;;;;;11.52;6.95;;;14.80;99.90;;;;;;5055156;28;20103;-59
2023/08/09 02:20:27;;;;;;;17.63;7.55;;;14.80;99.90;;;;;;5054161;28;20025;-58
2023/08/09 02:22:53;;;;;;;14.37;7.73;;;14.80;99.90;;;;;;5054766;28;20025;-59
2023/08/09 02:25:19;;;;;;;10.10;6.03;;;14.70;99.90;;;;;;5036740;28;20052;-58
2023/08/09 02:27:46;;;;;;;9.52;6.50;;;14.70;99.90;;;;;;5055099;28;20029;-56
2023/08/09 02:30:12;;;;;;;9.85;6.28;;;14.70;99.90;;;;;;5054954;28;20397;-58
2023/08/09 02:32:38;;;;;;;9.90;5.85;;;14.70;99.90;;;;;;5054072;28;20028;-58
2023/08/09 02:35:05;;;;;;;11.23;6.75;;;14.70;99.90;;;;;;5055253;28;20051;-59
2023/08/09 02:37:31;;;;;;;9.77;5.83;;;14.70;99.90;;;;;;5052797;28;20489;-66
2023/08/09 02:39:56;;;;;;;13.95;6.43;;;14.70;99.90;;;;;;5051593;28;20291;-58
2023/08/09 02:42:23;;;;;;;6.38;4.97;;;14.70;99.90;;;;;;5054853;28;20064;-58
2023/08/09 02:44:49;;;;;;;9.23;5.75;;;14.70;99.90;;;;;;5054721;28;20029;-58
2023/08/09 02:47:14;;;;;;;6.75;4.57;;;14.60;99.90;;;;;;5054726;28;20029;-59
2023/08/09 02:49:40;;;;;;;18.65;5.90;;;14.60;99.90;;;;;;5054724;28;20528;-58
2023/08/09 02:52:06;;;;;;;7.28;5.38;;;14.60;99.90;;;;;;5054667;28;20449;-59
2023/08/09 02:54:31;;;;;;;8.68;5.60;;;14.60;99.90;;;;;;5054532;28;20033;-59
2023/08/09 02:56:57;;;;;;;15.95;6.40;;;14.50;99.90;;;;;;5046274;28;20087;-58
2023/08/09 02:59:23;;;;;;;9.45;6.28;;;14.60;99.90;;;;;;5052918;28;20071;-57
2023/08/09 03:01:48;;;;;;;9.77;5.47;;;14.60;99.90;;;;;;5054495;28;20112;-57
2023/08/09 03:04:14;;;;;;;9.10;5.65;;;14.60;99.90;;;;;;5054340;28;20063;-57
2023/08/09 03:06:40;;;;;;;10.48;6.00;;;14.50;99.90;;;;;;5053037;28;20021;-59
2023/08/09 03:09:06;;;;;;;10.68;6.20;;;14.60;99.90;;;;;;5054185;28;20394;-58
2023/08/09 03:11:32;;;;;;;8.40;5.60;;;14.50;99.90;;;;;;5053507;28;20544;-59
2023/08/09 03:13:57;;;;;;;10.57;5.65;;;14.50;99.90;;;;;;5053098;28;20545;-59
2023/08/09 03:16:23;;;;;;;13.07;6.72;;;14.60;99.90;;;;;;5054256;28;20508;-59
2023/08/09 03:18:49;;;;;;;7.72;5.90;;;14.50;99.90;;;;;;5053917;28;20048;-66
2023/08/09 03:21:15;;;;;;;9.23;5.65;;;14.50;99.90;;;;;;5052221;28;20029;-57
2023/08/09 03:23:41;;;;;;;9.27;5.85;;;14.50;99.90;;;;;;5054216;28;20040;-59
2023/08/09 03:26:06;;;;;;;10.35;6.03;;;14.50;99.90;;;;;;5053995;28;20033;-58
2023/08/09 03:28:33;;;;;;;12.20;7.05;;;14.50;99.90;;;;;;5035307;28;20021;-56
2023/08/09 03:30:58;;;;;;;12.05;6.22;;;14.50;99.90;;;;;;5052120;28;20083;-58
2023/08/09 03:33:25;;;;;;;11.90;6.32;;;14.50;99.90;;;;;;5053830;28;20025;-43
2023/08/09 03:35:51;;;;;;;8.48;5.25;;;14.50;99.90;;;;;;5052930;28;20424;-43
2023/08/09 03:38:17;;;;;;;23.25;7.15;;;14.50;99.90;;;;;;5053569;28;20296;-44
2023/08/09 03:40:43;;;;;;;9.43;6.60;;;14.50;99.90;;;;;;5055663;28;20393;-45
2023/08/09 03:43:08;;;;;;;10.50;6.53;;;14.50;99.90;;;;;;5060362;28;20394;-57
2023/08/09 03:45:34;;;;;;;9.52;6.38;;;14.40;99.90;;;;;;5052889;28;20029;-56
2023/08/09 03:47:59;;;;;;;11.13;6.38;;;14.40;99.90;;;;;;5052437;28;20071;-57
2023/08/09 03:50:25;;;;;;;7.03;5.55;;;14.40;99.90;;;;;;5053562;28;20501;-44
2023/08/09 03:52:51;;;;;;;7.72;5.43;;;14.40;99.90;;;;;;5052372;28;20100;-45
2023/08/09 03:55:17;;;;;;;11.85;6.38;;;14.40;99.90;;;;;;5052347;28;20040;-57
2023/08/09 03:57:43;;;;;;;9.48;5.60;;;14.40;99.90;;;;;;5052278;28;20470;-46
2023/08/09 04:00:13;;;;;;;7.95;5.45;;;14.40;99.90;;;;;;5052600;28;20055;-42
2023/08/09 04:02:39;;;;;;;12.88;6.93;;;14.40;99.90;;;;;;5053580;28;20017;-57
2023/08/09 04:05:05;;;;;;;12.20;5.75;;;14.40;99.90;;;;;;5053114;28;20043;-58
2023/08/09 04:07:31;;;;;;;9.30;6.38;;;14.40;99.90;;;;;;5052258;28;20025;-58
2023/08/09 04:09:56;;;;;;;9.25;6.43;;;14.40;99.90;;;;;;5053093;28;20567;-57
2023/08/09 04:12:22;;;;;;;9.50;6.07;;;14.30;99.90;;;;;;5052693;28;20021;-58
2023/08/09 04:14:48;;;;;;;9.27;6.03;;;14.40;99.90;;;;;;5052131;28;20025;-59
2023/08/09 04:17:13;;;;;;;9.25;5.88;;;14.30;99.90;;;;;;5053083;28;20473;-59
2023/08/09 04:19:39;;;;;;;11.82;7.22;;;14.30;99.90;;;;;;5051615;28;20050;-58
2023/08/09 04:22:04;;;;;;;10.77;6.50;;;14.40;99.90;;;;;;5052170;28;20029;-57
2023/08/09 04:24:30;;;;;;;13.68;7.28;;;14.30;99.90;;;;;;5052838;28;20047;-58
2023/08/09 04:26:56;;;;;;;10.45;6.68;;;14.40;99.90;;;;;;5052880;28;20032;-58
2023/08/09 04:29:21;;;;;;;14.75;7.05;;;14.40;99.90;;;;;;5052930;28;20025;-58
2023/08/09 04:31:48;;;;;;;17.77;7.60;;;14.40;99.90;;;;;;5052844;28;20057;-59
2023/08/09 04:34:13;;;;;;;14.57;7.30;;;14.40;99.90;;;;;;5052770;28;20112;-59
2023/08/09 04:36:39;;;;;;;13.23;7.50;;;14.40;99.90;;;;;;5050846;28;20496;-56
2023/08/09 04:39:08;;;;;;;12.57;6.88;;;14.40;99.90;;;;;;5052509;28;20029;-62
2023/08/09 04:41:35;;;;;;;14.30;7.80;;;14.50;99.90;;;;;;5050519;28;20020;-67
2023/08/09 04:44:00;;;;;;;18.08;8.63;;;14.50;99.90;;;;;;5051103;28;20115;-58
2023/08/09 04:46:26;;;;;;;14.77;7.63;;;14.50;99.90;;;;;;5052678;28;20493;-58
2023/08/09 04:48:52;;;;;;;14.98;8.50;;;14.50;99.90;;;;;;5068748;28;20075;-65
2023/08/09 04:51:18;;;;;;;16.67;7.72;;;14.50;99.90;;;;;;5058389;28;20124;-45
2023/08/09 04:53:44;;;;;;;15.88;8.98;;;14.60;99.90;;;;;;5052761;28;20485;-50
2023/08/09 04:56:10;;;;;;;12.00;6.70;;;14.60;99.90;;;;;;5052464;28;20031;-46
2023/08/09 04:58:36;;;;;;;18.02;8.15;;;14.60;99.90;;;;;;5052546;28;20541;-49
2023/08/09 05:01:02;;;;;;;12.23;7.47;;;14.60;99.90;;;;;;5051879;28;20100;-51
2023/08/09 05:03:27;;;;;;;12.82;7.82;;;14.60;99.90;;;;;;5052530;28;20120;-46
2023/08/09 05:05:53;;;;;;;13.60;8.15;;;14.70;99.90;;;;;;5051519;28;20433;-47
2023/08/09 05:08:19;;;;;;;16.27;8.75;;;14.70;99.90;;;;;;5051648;28;20032;-48
2023/08/09 05:10:45;;;;;;;12.52;7.07;;;14.70;99.90;;;;;;5052429;28;20539;-44
2023/08/09 05:13:10;;;;;;;13.55;7.93;;;14.70;99.90;;;;;;5052221;28;20091;-45
2023/08/09 05:15:36;;;;;;;20.27;8.60;;;14.80;99.90;;;;;;5052449;28;20398;-49
2023/08/09 05:18:03;;;;;;;15.32;8.40;;;14.80;99.90;;;;;;5051405;28;20057;-48
2023/08/09 05:20:29;;;;;;;13.18;7.40;;;14.70;99.90;;;;;;5051279;28;20043;-50
2023/08/09 05:22:55;;;;;;;12.27;7.40;;;14.80;99.90;;;;;;5052172;28;20021;-60
2023/08/09 05:25:20;;;;;;;13.35;7.13;;;14.80;99.90;;;;;;5052274;28;20044;-50
2023/08/09 05:27:47;;;;;;;14.10;8.35;;;14.80;99.90;;;;;;5051685;28;20041;-50
2023/08/09 05:30:14;;;;;;;14.30;7.72;;;14.80;99.90;;;;;;5052165;28;20036;-50
2023/08/09 05:32:40;;;;;;;16.27;7.57;;;14.90;99.90;;;;;;5052231;28;20036;-44
2023/08/09 05:35:06;;;;;;;14.63;7.95;;;14.90;99.90;;;;;;5053692;28;20496;-50
2023/08/09 05:37:32;;;;;;;12.95;6.50;;;15.00;99.90;;;;;;5054994;28;20431;-49
2023/08/09 05:39:57;;;;;;;12.50;7.78;;;15.10;99.90;;;;;;5056009;28;20104;-66
2023/08/09 05:42:23;;;;;;;17.52;7.65;;;15.10;99.90;;;;;;5055924;28;20025;-52
2023/08/09 05:44:49;;;;;;;12.88;7.07;;;15.10;99.90;;;;;;5054969;28;20496;-50
2023/08/09 05:47:15;;;;;;;10.75;6.40;;;15.20;99.90;;;;;;5055944;28;20469;-49
2023/08/09 05:49:41;;;;;;;11.02;6.40;;;15.30;99.90;;;;;;5061681;28;20040;-47
2023/08/09 05:52:06;;;;;;;15.32;8.68;;;15.30;99.90;;;;;;5063748;28;20507;-57
2023/08/09 05:54:32;;;;;;;12.13;7.38;;;15.30;99.90;;;;;;5055736;28;20028;-45
2023/08/09 05:57:00;;;;;;;15.52;7.95;;;15.30;99.90;;;;;;5055719;28;20075;-48
2023/08/09 05:59:27;;;;;;;13.90;7.80;;;15.40;99.90;;;;;;5037274;28;20033;-47
2023/08/09 06:01:52;;;;;;;13.52;7.80;;;15.40;99.90;;;;;;5054649;28;20033;-51
2023/08/09 06:04:18;;;;;;;14.27;8.10;;;15.40;99.90;;;;;;5055679;28;20021;-61
2023/08/09 06:06:45;;;;;;;13.60;7.28;;;15.40;99.90;;;;;;5054816;28;20028;-58
2023/08/09 06:09:11;;;;;;;15.27;8.23;;;15.40;99.90;;;;;;5054738;28;20036;-58
2023/08/09 06:11:36;;;;;;;12.82;7.38;;;15.40;99.90;;;;;;5055411;28;20021;-58
2023/08/09 06:14:03;;;;;;;14.38;7.97;;;15.50;99.90;;;;;;5055365;28;20052;-58
2023/08/09 06:16:30;;;;;;;14.35;8.57;;;15.60;99.90;;;;;;5055637;28;20075;-58
2023/08/09 06:18:55;;;;;;;15.07;8.02;;;15.60;99.90;;;;;;5054009;28;20509;-53
2023/08/09 06:21:21;;;;;;;14.60;8.23;;;15.70;99.90;;;;;;5054794;28;20021;-58
2023/08/09 06:23:47;;;;;;;16.42;7.78;;;15.80;99.90;;;;;;5055062;28;20025;-58
2023/08/09 06:26:13;;;;;;;17.25;8.85;;;15.80;99.90;;;;;;5054270;28;20064;-58
2023/08/09 06:28:39;;;;;;;12.23;6.75;;;15.80;99.90;;;;;;5054166;28;20033;-58
2023/08/09 06:31:05;;;;;;;11.43;7.38;;;15.90;99.90;;;;;;5052279;28;20245;-58
2023/08/09 06:33:30;;;;;;;15.90;8.18;;;15.90;99.90;;;;;;5054756;28;20035;-69
2023/08/09 06:35:56;;;;;;;13.48;7.30;;;16.00;99.90;;;;;;5054774;28;20044;-56
2023/08/09 06:38:22;;;;;;;16.23;8.90;;;16.10;99.90;;;;;;5036519;28;20017;-58
2023/08/09 06:40:47;;;;;;;13.27;7.57;;;16.20;99.90;;;;;;5054881;28;20075;-58
2023/08/09 06:43:13;;;;;;;11.85;7.43;;;16.30;99.90;;;;;;5054850;28;20060;-60
2023/08/09 06:45:39;;;;;;;14.57;7.32;;;16.40;99.90;;;;;;5053613;28;20021;-56
2023/08/09 06:48:07;;;;;;;10.75;7.07;;;16.60;99.90;;;;;;5054934;28;20075;-57
2023/08/09 06:50:33;;;;;;;14.70;8.95;;;16.70;99.90;;;;;;5054555;28;20449;-58
2023/08/09 06:52:59;;;;;;;15.73;8.88;;;16.80;99.90;;;;;;5054357;28;20049;-57
2023/08/09 06:55:25;;;;;;;12.13;7.38;;;16.90;99.90;;;;;;5041097;28;20059;-57
2023/08/09 06:57:50;;;;;;;14.52;7.72;;;17.00;99.90;;;;;;5054568;28;20033;-57
2023/08/09 07:00:17;;;;;;;18.38;7.95;;;17.20;99.90;;;;;;5054769;28;20071;-60
2023/08/09 07:02:45;;;;;;;11.38;6.57;;;17.30;99.90;;;;;;5054413;28;20028;-57
2023/08/09 07:05:15;;;;;;;13.93;7.18;;;17.40;99.90;;;;;;5054664;28;20500;-55
2023/08/09 07:07:48;;;;;;;18.05;7.88;;;17.60;99.90;;;;;;5054355;28;20040;-57
2023/08/09 07:10:17;;;;;;;11.73;6.35;;;17.70;99.90;;;;;;5053588;28;20366;-57
2023/08/09 07:12:43;;;;;;;11.32;6.90;;;17.80;99.90;;;;;;5054035;28;20033;-57
2023/08/09 07:15:10;;;;;;;10.30;6.35;;;18.00;99.90;;;;;;5054471;28;20017;-57
2023/08/09 07:17:36;;;;;;;17.40;6.97;;;18.20;99.90;;;;;;5054282;28;20028;-56
2023/08/09 07:20:11;;;;;;;10.38;6.30;;;18.40;99.90;;;;;;5053910;28;20284;-57
2023/08/09 07:22:46;;;;;;;11.20;6.22;;;18.50;99.90;;;;;;5037631;28;20033;-57
2023/08/09 07:25:13;;;;;;;9.50;5.10;;;18.60;99.90;;;;;;5053621;28;20549;-54
2023/08/09 07:27:41;;;;;;;8.13;5.33;;;18.60;99.90;;;;;;5034739;28;20021;-57
2023/08/09 07:30:08;;;;;;;13.23;6.10;;;18.70;99.90;;;;;;5054014;28;20021;-56
2023/08/09 07:32:34;;;;;;;6.75;4.65;;;18.80;99.90;;;;;;5054070;28;20029;-56
2023/08/09 07:34:59;;;;;;;5.85;3.95;;;18.90;99.90;;;;;;5052985;28;20116;-56
2023/08/09 07:37:25;;;;;;;5.88;4.57;;;19.00;99.90;;;;;;5035759;28;20120;-64
2023/08/09 07:39:51;;;;;;;5.38;3.70;;;19.00;99.90;;;;;;5053681;28;20043;-68
2023/08/09 07:42:17;;;;;;;5.63;3.63;;;19.00;99.90;;;;;;5053364;28;20033;-55
2023/08/09 07:44:43;;;;;;;5.05;3.42;;;19.00;99.90;;;;;;5053589;28;20469;-56
2023/08/09 07:47:09;;;;;;;3.40;2.90;;;18.90;99.90;;;;;;5053899;28;20040;-56
2023/08/09 07:49:34;;;;;;;4.72;3.75;;;18.80;99.90;;;;;;5052626;28;20024;-57
2023/08/09 07:52:00;;;;;;;5.85;3.15;;;18.70;99.90;;;;;;5051804;28;20082;-54
2023/08/09 07:54:26;;;;;;;6.82;3.28;;;18.60;99.90;;;;;;5051748;28;20043;-54
2023/08/09 07:56:52;;;;;;;6.45;3.80;;;18.60;99.90;;;;;;5050489;28;20112;-55
2023/08/09 07:59:18;;;;;;;5.22;3.38;;;18.60;99.90;;;;;;5053298;28;20032;-57
2023/08/09 08:01:44;;;;;;;4.70;3.08;;;18.50;99.90;;;;;;5052211;28;20553;-55
2023/08/09 08:04:10;;;;;;;6.63;2.70;;;18.50;99.90;;;;;;5053479;28;20436;-55
2023/08/09 08:06:36;;;;;;;3.53;1.88;;;18.60;99.90;;;;;;5050725;28;20029;-56
2023/08/09 08:09:02;;;;;;;3.40;2.05;;;18.70;99.90;;;;;;5050496;28;20032;-58
2023/08/09 08:11:27;;;;;;;3.70;1.40;;;18.80;99.90;;;;;;5050369;28;20465;-56
2023/08/09 08:13:53;;;;;;;4.07;1.63;;;18.80;99.90;;;;;;5033840;28;20044;-56
2023/08/09 08:16:20;;;;;;;2.92;1.98;;;18.90;99.90;;;;;;5051934;28;20535;-59
2023/08/09 08:18:45;;;;;;;4.10;2.15;;;19.00;99.90;;;;;;5052317;28;20021;-55
2023/08/09 08:21:11;;;;;;;3.45;2.00;;;19.10;99.90;;;;;;5052998;28;20032;-54
2023/08/09 08:23:36;;;;;;;2.70;2.38;;;19.20;99.90;;;;;;5052811;28;20029;-55
2023/08/09 08:26:02;;;;;;;3.00;2.70;;;19.30;99.90;;;;;;5052941;28;20111;-57
2023/08/09 08:28:28;;;;;;;5.28;2.40;;;19.50;99.90;;;;;;5052993;28;20032;-57
2023/08/09 08:30:53;;;;;;;2.83;2.22;;;19.60;99.90;;;;;;5052610;28;20362;-67
2023/08/09 08:33:21;;;;;;;4.90;2.80;;;19.50;99.90;;;;;;5052798;28;20072;-55
2023/08/09 08:35:49;;;;;;;2.58;2.00;;;19.50;99.90;;;;;;5051986;28;20025;-55
2023/08/09 08:38:16;;;;;;;6.47;2.55;;;19.40;99.90;;;;;;5052868;28;20067;-46
2023/08/09 08:40:43;;;;;;;11.75;2.63;;;19.60;99.90;;;;;;5035098;28;20032;-45
2023/08/09 08:43:08;;;;;;;5.90;2.30;;;19.60;99.90;;;;;;5052950;28;20108;-45
2023/08/09 08:45:38;;;;;;;1.90;1.70;;;19.70;99.90;;;;;;5052642;28;20115;-49
2023/08/09 08:48:08;;;;;;;5.78;1.65;;;20.00;99.90;;;;;;5052648;28;20068;-49
2023/08/09 08:50:37;;;;;;;1.73;1.63;;;20.30;99.90;;;;;;5052703;28;20029;-45
2023/08/09 08:53:04;;;;;;;4.55;1.88;;;20.70;99.90;;;;;;5047858;28;20486;-48
2023/08/09 08:55:30;;;;;;;2.10;1.38;;;21.00;99.90;;;;;;5047196;28;20021;-53
2023/08/09 08:57:56;;;;;;;3.40;1.70;;;21.10;99.90;;;;;;5043244;28;20496;-57
2023/08/09 09:00:23;;;;;;;2.10;1.38;;;21.30;99.90;;;;;;5051589;28;20033;-47
2023/08/09 09:02:49;;;;;;;1.70;1.27;;;21.40;99.90;;;;;;5051765;28;20538;-47
2023/08/09 09:05:18;;;;;;;4.45;2.40;;;21.50;99.90;;;;;;5051284;28;20283;-47
2023/08/09 09:07:49;;;;;;;2.17;1.42;;;21.60;99.90;;;;;;5049645;28;20056;-51
2023/08/09 09:10:15;;;;;;;4.47;1.10;;;21.40;99.90;;;;;;5054841;28;20486;-46
2023/08/09 09:12:41;;;;;;;1.30;1.20;;;21.50;99.90;;;;;;5054201;28;20104;-47
2023/08/09 09:15:08;;;;;;;1.92;1.75;;;21.90;99.90;;;;;;5051908;28;20024;-45
2023/08/09 09:17:38;;;;;;;;;;;21.90;99.90;;;;;;5054076;28;20599;-46
2023/08/09 09:20:10;;;;;;;2.65;1.77;;;21.60;99.90;;;;;;5055951;28;19917;-45
2023/08/09 09:22:36;;;;;;;14.82;1.60;;;21.50;99.90;;;;;;5056395;28;20028;-48
2023/08/09 09:25:07;;;;;;;2.15;1.48;;;21.40;99.90;;;;;;5055416;28;20047;-52
2023/08/09 09:27:36;;;;;;;2.08;1.30;;;21.40;99.90;;;;;;5037383;28;20103;-53
2023/08/09 09:30:05;;;;;;;2.88;1.60;;;21.80;99.90;;;;;;5056181;28;20033;-48
2023/08/09 09:32:34;;;;;;;4.85;1.73;;;22.10;99.90;;;;;;5055351;28;20397;-70
2023/08/09 09:34:59;;;;;;;4.05;1.83;;;22.20;99.90;;;;;;5036956;28;20033;-49
2023/08/09 09:37:27;;;;;;;3.30;1.40;;;22.30;99.90;;;;;;5052894;28;20378;-49
2023/08/09 09:39:54;;;;;;;1.92;1.45;;;22.60;99.90;;;;;;5055860;28;20021;-56
2023/08/09 09:42:30;;;;;;;1.40;1.17;;;23.30;99.90;;;;;;5055851;28;20079;-56
2023/08/09 09:45:07;;;;;;;5.50;1.48;;;23.60;99.90;;;;;;5053072;28;20029;-55
2023/08/09 09:47:39;;;;;;;1.73;1.42;;;23.30;99.90;;;;;;5055355;28;20025;-56
2023/08/09 09:50:09;;;;;;;4.43;1.90;;;23.00;99.90;;;;;;5053838;28;20029;-55
2023/08/09 09:52:36;;;;;;;1.92;1.40;;;22.70;99.90;;;;;;5053890;28;20055;-56
2023/08/09 09:55:02;;;;;;;5.40;1.30;;;22.30;99.90;;;;;;5053220;28;20027;-56
2023/08/09 09:57:28;;;;;;;3.38;1.55;;;22.00;99.90;;;;;;5054543;28;20420;-54
2023/08/09 10:00:04;;;;;;;3.67;1.60;;;21.60;99.90;;;;;;5055599;28;20025;-56
2023/08/09 10:02:48;;;;;;;4.40;1.70;;;21.20;99.90;;;;;;5041233;28;20049;-55
2023/08/09 10:05:23;;;;;;;3.78;1.45;;;20.50;99.90;;;;;;5055545;28;20032;-56
2023/08/09 10:07:50;;;;;;;3.35;1.60;;;20.10;99.90;;;;;;5036944;28;20057;-55
2023/08/09 10:10:17;;;;;;;3.22;1.70;;;20.30;99.90;;;;;;5054332;28;20049;-55
2023/08/09 10:13:03;;;;;;;3.30;1.95;;;20.70;99.90;;;;;;5036098;28;20385;-55
2023/08/09 10:15:34;;;;;;;4.63;1.73;;;21.20;99.90;;;;;;5035408;28;20037;-55
2023/08/09 10:18:04;;;;;;;3.10;1.20;;;21.80;99.90;;;;;;5051998;28;20055;-56
2023/08/09 10:20:32;;;;;;;2.80;1.50;;;22.40;99.90;;;;;;5054794;28;20075;-64
2023/08/09 10:23:00;;;;;;;1.20;1.15;;;22.70;99.90;;;;;;5054295;28;20029;-55
2023/08/09 10:25:45;;;;;;;4.95;1.30;;;22.00;99.90;;;;;;5052519;28;20096;-56
2023/08/09 10:28:11;;;;;;;2.92;1.50;;;21.50;99.90;;;;;;5045657;28;20082;-54
2023/08/09 10:30:54;;;;;;;2.42;1.10;;;21.20;99.90;;;;;;5054764;28;20435;-54
2023/08/09 10:33:19;;;;;;;2.28;1.40;;;21.20;99.90;;;;;;5054853;28;20489;-56
2023/08/09 10:35:45;;;;;;;1.73;1.38;;;21.30;99.90;;;;;;5054181;28;20078;-54
2023/08/09 10:38:16;;;;;;;1.67;1.10;;;21.60;99.90;;;;;;5053677;28;20021;-57
2023/08/09 10:40:43;;;;;;;1.20;1.10;;;22.10;99.90;;;;;;5053541;28;20026;-53
2023/08/09 10:43:23;;;;;;;2.65;1.20;;;22.60;99.90;;;;;;5045517;28;20037;-56
2023/08/09 10:45:52;;;;;;;2.35;1.10;;;22.80;99.90;;;;;;5054394;28;20021;-58
2023/08/09 10:48:22;;;;;;;3.17;1.55;;;22.60;99.90;;;;;;5054687;28;20033;-56
2023/08/09 10:51:00;;;;;;;4.07;1.30;;;22.20;99.90;;;;;;5054656;28;20108;-57
2023/08/09 10:53:27;;;;;;;2.80;0.85;;;22.00;99.90;;;;;;5051124;28;20033;-56
2023/08/09 10:55:56;;;;;;;1.83;1.25;;;21.90;99.90;;;;;;5071481;28;20033;-57
2023/08/09 10:58:28;;;;;;;2.30;1.23;;;21.90;99.90;;;;;;5074620;28;20017;-55
2023/08/09 11:00:54;;;;;;;2.08;0.77;;;21.70;99.90;;;;;;5074713;28;20017;-54
2023/08/09 11:03:20;;;;;;;4.70;0.88;;;21.70;99.90;;;;;;5074373;28;20107;-55
2023/08/09 11:05:46;;;;;;;7.72;1.42;;;21.70;99.90;;;;;;5074368;28;20052;-54
2023/08/09 11:08:17;;;;;;;2.03;1.13;;;21.80;99.90;;;;;;5070856;28;20040;-56
2023/08/09 11:10:43;;;;;;;0.85;0.80;;;21.80;99.90;;;;;;5054303;28;20025;-56
2023/08/09 11:13:12;;;;;;;3.95;0.73;;;21.40;99.90;;;;;;5053491;28;20104;-55
2023/08/09 11:15:41;;;;;;;3.95;0.82;;;21.40;99.90;;;;;;5039758;28;20083;-57
2023/08/09 11:18:07;;;;;;;4.85;0.90;;;21.60;99.90;;;;;;5035680;28;20078;-55
2023/08/09 11:20:34;;;;;;;5.15;0.77;;;21.70;99.90;;;;;;5049985;28;20482;-56
2023/08/09 11:23:01;;;;;;;1.80;0.67;;;21.60;99.90;;;;;;5051915;28;20458;-54
2023/08/09 11:25:29;;;;;;;0.75;0.68;;;21.50;99.90;;;;;;5035358;28;20350;-56
2023/08/09 11:27:56;;;;;;;2.92;1.05;;;21.40;99.90;;;;;;5052226;28;20092;-55
2023/08/09 11:30:22;;;;;;;;;;;21.30;99.90;;;;;;5053981;28;20466;-53
2023/08/09 11:33:02;;;;;;;4.45;0.70;;;21.30;99.90;;;;;;5052775;28;19917;-55
2023/08/09 11:35:33;;;;;;;0.93;0.52;;;21.20;99.90;;;;;;5051888;28;20025;-51
2023/08/09 11:37:59;;;;;;;6.10;0.70;;;21.00;99.90;;;;;;5035868;28;20429;-55
2023/08/09 11:40:25;;;;;;;3.03;1.05;;;20.80;99.90;;;;;;5051423;28;20051;-57
2023/08/09 11:42:56;;;;;;;5.05;0.95;;;20.40;99.90;;;;;;5052848;28;20025;-54
2023/08/09 11:45:21;;;;;;;1.58;0.70;;;20.50;99.90;;;;;;5053502;28;20032;-55
2023/08/09 11:47:52;;;;;;;3.97;0.73;;;20.80;99.90;;;;;;5053603;28;20033;-57
2023/08/09 11:50:24;;;;;;;2.65;0.85;;;20.80;99.90;;;;;;5053460;28;20108;-72
2023/08/09 11:52:54;;;;;;;3.80;0.95;;;20.70;99.90;;;;;;5053449;28;20370;-65
2023/08/09 11:55:21;;;;;;;2.65;0.80;;;20.80;99.90;;;;;;5036133;28;20492;-55
2023/08/09 11:57:47;;;;;;;0.88;0.88;;;20.80;99.90;;;;;;5053557;28;20398;-54
2023/08/09 12:00:14;;;;;;;6.13;1.20;;;20.70;99.90;;;;;;5052677;28;20106;-56
2023/08/09 12:02:40;;;;;;;1.35;0.77;;;20.70;99.90;;;;;;5053610;28;20465;-54
2023/08/09 12:05:16;;;;;;;5.97;0.50;;;20.80;99.90;;;;;;5053234;28;20113;-56
2023/08/09 12:07:44;;;;;;;4.13;0.65;;;20.80;99.90;;;;;;5053238;28;20025;-55
2023/08/09 12:10:13;;;;;;;0.50;0.50;;;20.80;99.90;;;;;;5052931;28;20033;-56
2023/08/09 12:12:41;;;;;;;3.15;0.70;;;20.90;99.90;;;;;;5053098;28;20041;-56
2023/08/09 12:15:09;;;;;;;3.65;0.93;;;21.00;99.90;;;;;;5053272;28;20035;-55
2023/08/09 12:17:34;;;;;;;4.10;0.88;;;21.20;99.90;;;;;;5048659;28;20025;-56
2023/08/09 12:20:02;;;;;;;9.30;0.77;;;21.50;99.90;;;;;;5050694;28;20071;-54
2023/08/09 12:22:28;;;;;;;5.03;1.08;;;21.70;99.90;;;;;;5052724;28;20087;-55
2023/08/09 12:24:55;;;;;;;1.58;0.75;;;21.60;99.90;;;;;;5035019;28;20035;-55
2023/08/09 12:27:21;;;;;;;2.92;0.80;;;21.50;99.90;;;;;;5051853;28;20037;-54
2023/08/09 12:29:47;;;;;;;2.63;0.90;;;21.20;99.90;;;;;;5051779;28;20037;-55
2023/08/09 12:32:13;;;;;;;13.63;1.02;;;21.20;99.90;;;;;;5052839;28;20393;-57
2023/08/09 12:34:39;;;;;;;16.58;1.17;;;21.10;99.90;;;;;;5051463;28;20112;-56
2023/08/09 12:37:05;;;;;;;1.42;0.75;;;21.20;99.90;;;;;;5049159;28;20036;-53
2023/08/09 12:39:32;;;;;;;3.13;0.60;;;21.20;99.90;;;;;;5050425;28;20017;-54
2023/08/09 12:41:59;;;;;;;5.75;0.73;;;21.10;99.90;;;;;;5032874;28;20029;-55
2023/08/09 12:44:25;;;;;;;6.40;0.98;;;21.10;99.90;;;;;;5050798;28;20033;-54